createdAt,value
2018-08-24T00:01:20.809Z,27.10
2018-08-24T00:03:55.239Z,27.10
2018-08-24T00:06:29.492Z,27.10
2018-08-24T00:09:06.632Z,27.10
2018-08-24T00:11:41.073Z,27.10
2018-08-24T00:14:15.444Z,27.20
2018-08-24T00:16:49.781Z,27.20
2018-08-24T00:19:24.144Z,27.20
2018-08-24T00:21:58.378Z,27.10
2018-08-24T00:24:32.655Z,27.10
2018-08-24T00:27:07.196Z,27.10
2018-08-24T00:29:41.572Z,27.10
2018-08-24T00:32:15.928Z,27.10
2018-08-24T00:34:50.300Z,27.10
2018-08-24T00:37:24.549Z,27.20
2018-08-24T00:39:58.915Z,27.10
2018-08-24T00:42:33.290Z,27.10
2018-08-24T00:45:07.607Z,27.10
2018-08-24T00:47:42.006Z,27.10
2018-08-24T00:50:16.413Z,27.10
2018-08-24T00:52:50.616Z,27.10
2018-08-24T00:55:25.052Z,27.00
2018-08-24T00:57:59.416Z,27.10
2018-08-24T01:00:39.081Z,27.10
2018-08-24T01:03:14.316Z,27.10
2018-08-24T01:05:48.672Z,27.10
2018-08-24T01:08:22.910Z,27.10
2018-08-24T01:10:57.232Z,27.10
2018-08-24T01:13:31.669Z,27.10
2018-08-24T01:16:05.994Z,27.10
2018-08-24T01:18:45.628Z,27.10
2018-08-24T01:21:20.003Z,27.10
2018-08-24T01:23:54.452Z,27.10
2018-08-24T01:26:28.663Z,27.10
2018-08-24T01:29:03.055Z,27.10
2018-08-24T01:31:37.442Z,27.10
2018-08-24T01:34:11.764Z,27.10
2018-08-24T01:36:45.984Z,27.00
2018-08-24T01:39:20.200Z,27.00
2018-08-24T01:41:54.544Z,27.00
2018-08-24T01:44:29.023Z,27.00
2018-08-24T01:47:03.279Z,27.00
2018-08-24T01:49:37.527Z,27.00
2018-08-24T01:52:11.928Z,27.00
2018-08-24T01:54:46.284Z,27.00
2018-08-24T01:57:20.567Z,27.00
2018-08-24T01:59:55.096Z,27.00
2018-08-24T02:02:29.452Z,27.00
2018-08-24T02:05:03.842Z,27.00
2018-08-24T02:07:38.412Z,26.90
2018-08-24T02:10:18.101Z,26.90
2018-08-24T02:12:57.729Z,27.00
2018-08-24T02:15:31.994Z,26.90
2018-08-24T02:18:11.942Z,26.90
2018-08-24T02:20:51.736Z,26.90
2018-08-24T02:23:26.111Z,26.90
2018-08-24T02:26:00.516Z,26.90
2018-08-24T02:28:34.875Z,26.90
2018-08-24T02:31:09.251Z,26.90
2018-08-24T02:33:43.584Z,26.90
2018-08-24T02:36:18.033Z,26.90
2018-08-24T02:38:52.220Z,26.90
2018-08-24T02:41:26.575Z,26.80
2018-08-24T02:44:00.898Z,26.80
2018-08-24T02:46:35.297Z,26.80
2018-08-24T02:49:09.653Z,26.80
2018-08-24T02:51:43.949Z,26.80
2018-08-24T02:54:18.280Z,26.80
2018-08-24T02:56:52.601Z,26.70
2018-08-24T02:59:26.896Z,26.70
2018-08-24T03:02:01.217Z,26.70
2018-08-24T03:04:35.627Z,26.60
2018-08-24T03:07:09.941Z,26.70
2018-08-24T03:09:44.180Z,26.60
2018-08-24T03:12:18.586Z,26.60
2018-08-24T03:14:52.937Z,26.60
2018-08-24T03:17:32.573Z,26.60
2018-08-24T03:20:07.052Z,26.60
2018-08-24T03:22:41.335Z,26.60
2018-08-24T03:25:15.740Z,26.60
2018-08-24T03:27:50.036Z,26.60
2018-08-24T03:30:24.405Z,26.60
2018-08-24T03:32:58.822Z,26.60
2018-08-24T03:35:33.081Z,26.60
2018-08-24T03:38:07.315Z,26.60
2018-08-24T03:40:41.512Z,26.60
2018-08-24T03:43:16.237Z,26.50
2018-08-24T03:45:50.488Z,26.50
2018-08-24T03:48:24.717Z,26.60
2018-08-24T03:50:58.977Z,26.60
2018-08-24T03:53:33.289Z,26.60
2018-08-24T03:56:07.560Z,26.60
2018-08-24T03:58:41.775Z,26.60
2018-08-24T04:01:16.008Z,26.60
2018-08-24T04:03:50.359Z,26.60
2018-08-24T04:06:24.574Z,26.60
2018-08-24T04:08:58.962Z,26.50
2018-08-24T04:11:33.213Z,26.50
2018-08-24T04:14:08.019Z,26.50
2018-08-24T04:16:47.954Z,26.50
2018-08-24T04:19:29.122Z,26.50
2018-08-24T04:22:03.432Z,26.50
2018-08-24T04:24:40.444Z,26.50
2018-08-24T04:27:14.673Z,26.50
2018-08-24T04:29:48.972Z,26.50
2018-08-24T04:32:23.323Z,26.50
2018-08-24T04:34:57.547Z,26.50
2018-08-24T04:37:31.784Z,26.50
2018-08-24T04:40:06.164Z,26.50
2018-08-24T04:42:40.573Z,26.50
2018-08-24T04:45:14.916Z,26.50
2018-08-24T04:47:49.260Z,26.40
2018-08-24T04:50:23.551Z,26.30
2018-08-24T04:52:57.807Z,26.30
2018-08-24T04:55:32.141Z,25.10
2018-08-24T04:58:06.526Z,22.40
2018-08-24T05:00:40.897Z,21.90
2018-08-24T05:03:15.284Z,21.10
2018-08-24T05:05:49.619Z,20.90
2018-08-24T05:08:23.738Z,20.40
2018-08-24T05:10:58.127Z,19.90
2018-08-24T05:13:32.497Z,19.60
2018-08-24T05:16:06.888Z,19.70
2018-08-24T05:18:41.132Z,19.70
2018-08-24T05:21:15.411Z,19.40
2018-08-24T05:23:49.756Z,19.60
2018-08-24T05:26:23.977Z,19.80
2018-08-24T05:28:58.273Z,19.30
2018-08-24T05:31:32.647Z,19.30
2018-08-24T05:34:06.986Z,19.30
2018-08-24T05:36:41.294Z,19.30
2018-08-24T05:39:15.547Z,19.10
2018-08-24T05:41:49.828Z,19.20
2018-08-24T05:44:24.068Z,19.60
2018-08-24T05:46:58.376Z,19.60
2018-08-24T05:49:32.729Z,19.50
2018-08-24T05:52:07.354Z,19.50
2018-08-24T05:54:41.710Z,19.50
2018-08-24T05:57:15.971Z,19.50
2018-08-24T05:59:50.284Z,19.30
2018-08-24T06:02:24.885Z,19.30
2018-08-24T06:04:59.238Z,20.70
2018-08-24T06:07:33.599Z,19.90
2018-08-24T06:10:07.914Z,19.60
2018-08-24T06:12:42.117Z,18.90
2018-08-24T06:15:16.684Z,19.00
2018-08-24T06:17:53.165Z,19.00
2018-08-24T06:20:27.555Z,19.00
2018-08-24T06:23:01.889Z,19.30
2018-08-24T06:25:36.129Z,19.10
2018-08-24T06:28:10.499Z,19.40
2018-08-24T06:30:44.941Z,18.80
2018-08-24T06:33:22.862Z,18.70
2018-08-24T06:35:57.060Z,19.20
2018-08-24T06:38:31.479Z,19.30
2018-08-24T06:41:07.253Z,19.30
2018-08-24T06:43:41.658Z,19.50
2018-08-24T06:46:16.082Z,19.50
2018-08-24T06:48:50.507Z,19.20
2018-08-24T06:51:24.796Z,19.20
2018-08-24T06:53:59.172Z,19.80
2018-08-24T06:56:33.546Z,19.30
2018-08-24T06:59:07.989Z,19.60
2018-08-24T07:01:42.384Z,19.70
2018-08-24T07:04:16.628Z,19.90
2018-08-24T07:06:50.956Z,19.80
2018-08-24T07:09:25.212Z,19.50
2018-08-24T07:11:59.501Z,19.20
2018-08-24T07:14:33.865Z,19.50
2018-08-24T07:17:08.203Z,19.60
2018-08-24T07:19:42.492Z,19.60
2018-08-24T07:22:16.947Z,19.70
2018-08-24T07:24:51.174Z,19.30
2018-08-24T07:27:25.538Z,19.50
2018-08-24T07:29:59.828Z,19.50
2018-08-24T07:32:34.290Z,19.60
2018-08-24T07:35:08.528Z,20.20
2018-08-24T07:37:42.964Z,21.30
2018-08-24T07:40:17.229Z,22.00
2018-08-24T07:42:51.894Z,22.30
2018-08-24T07:45:27.253Z,23.20
2018-08-24T07:48:01.540Z,22.60
2018-08-24T07:50:35.843Z,22.80
2018-08-24T07:53:10.260Z,22.80
2018-08-24T07:55:44.605Z,23.00
2018-08-24T07:58:18.974Z,23.00
2018-08-24T08:00:53.313Z,23.40
2018-08-24T08:03:27.717Z,23.40
2018-08-24T08:06:01.989Z,23.20
2018-08-24T08:08:36.240Z,23.60
2018-08-24T08:11:10.543Z,23.50
2018-08-24T08:13:44.941Z,23.50
2018-08-24T08:16:19.260Z,23.50
2018-08-24T08:18:53.623Z,23.60
2018-08-24T08:21:27.888Z,23.60
2018-08-24T08:24:02.198Z,23.70
2018-08-24T08:26:36.447Z,23.60
2018-08-24T08:29:14.908Z,23.50
2018-08-24T08:31:49.598Z,23.20
2018-08-24T08:34:23.856Z,23.30
2018-08-24T08:36:58.304Z,21.50
2018-08-24T08:39:32.514Z,21.70
2018-08-24T08:42:06.934Z,21.90
2018-08-24T08:44:41.210Z,21.90
2018-08-24T08:47:15.700Z,22.20
2018-08-24T08:49:49.984Z,22.40
2018-08-24T08:52:24.348Z,22.50
2018-08-24T08:54:58.722Z,22.70
2018-08-24T08:57:33.201Z,22.90
2018-08-24T09:00:07.483Z,23.00
2018-08-24T09:02:41.829Z,23.10
2018-08-24T09:05:16.126Z,23.00
2018-08-24T09:07:50.468Z,22.30
2018-08-24T09:10:24.746Z,22.40
2018-08-24T09:12:59.270Z,22.80
2018-08-24T09:15:33.676Z,21.80
2018-08-24T09:18:13.479Z,22.50
2018-08-24T09:20:53.194Z,22.40
2018-08-24T09:23:32.933Z,23.10
2018-08-24T09:26:12.653Z,23.70
2018-08-24T09:28:47.522Z,23.80
2018-08-24T09:31:26.172Z,23.60
2018-08-24T09:34:00.676Z,23.50
2018-08-24T09:36:34.904Z,23.60
2018-08-24T09:39:09.255Z,23.60
2018-08-24T09:41:43.493Z,23.50
2018-08-24T09:44:18.009Z,23.30
2018-08-24T09:46:57.766Z,22.90
2018-08-24T09:49:37.005Z,23.40
2018-08-24T09:52:16.562Z,23.70
2018-08-24T09:54:50.987Z,24.20
2018-08-24T09:57:25.383Z,24.40
2018-08-24T09:59:59.799Z,24.20
2018-08-24T10:02:39.675Z,24.30
2018-08-24T10:09:38.180Z,24.20
2018-08-24T10:12:12.573Z,24.60
2018-08-24T10:14:46.888Z,24.90
2018-08-24T10:17:25.646Z,24.70
2018-08-24T10:19:59.864Z,24.10
2018-08-24T10:22:34.296Z,24.50
2018-08-24T10:25:08.541Z,23.50
2018-08-24T10:27:42.803Z,24.20
2018-08-24T10:30:17.072Z,24.40
2018-08-24T10:32:51.403Z,24.70
2018-08-24T10:35:25.771Z,24.70
2018-08-24T10:38:00.121Z,24.60
2018-08-24T10:40:34.404Z,24.40
2018-08-24T10:43:08.687Z,24.80
2018-08-24T10:45:42.916Z,25.20
2018-08-24T10:48:17.149Z,25.10
2018-08-24T10:50:51.556Z,25.20
2018-08-24T10:53:26.037Z,25.40
2018-08-24T10:56:00.391Z,25.40
2018-08-24T10:58:35.632Z,25.80
2018-08-24T11:01:09.909Z,25.50
2018-08-24T11:03:44.479Z,25.30
2018-08-24T11:06:18.883Z,25.00
2018-08-24T11:08:53.164Z,24.50
2018-08-24T11:11:27.390Z,24.90
2018-08-24T11:14:01.601Z,25.30
2018-08-24T11:16:35.964Z,25.10
2018-08-24T11:19:10.193Z,24.20
2018-08-24T11:21:44.474Z,24.70
2018-08-24T11:24:18.812Z,24.50
2018-08-24T11:26:53.438Z,24.30
2018-08-24T11:29:27.695Z,24.50
2018-08-24T11:32:01.944Z,24.80
2018-08-24T11:34:36.425Z,24.90
2018-08-24T11:37:10.651Z,24.80
2018-08-24T11:39:44.935Z,24.50
2018-08-24T11:42:19.327Z,24.60
2018-08-24T11:44:53.741Z,24.60
2018-08-24T11:47:28.096Z,24.60
2018-08-24T11:50:02.543Z,24.60
2018-08-24T11:52:36.780Z,24.80
2018-08-24T11:55:11.240Z,24.90
2018-08-24T11:57:45.560Z,24.90
2018-08-24T12:00:24.121Z,24.60
2018-08-24T12:02:58.637Z,24.30
2018-08-24T12:05:32.975Z,24.30
2018-08-24T12:08:07.569Z,24.60
2018-08-24T12:10:41.718Z,24.50
2018-08-24T12:13:16.074Z,24.10
2018-08-24T12:15:50.512Z,23.30
2018-08-24T12:18:24.973Z,23.90
2018-08-24T12:20:59.742Z,23.70
2018-08-24T12:23:34.012Z,24.00
2018-08-24T12:26:08.309Z,24.10
2018-08-24T12:28:42.638Z,23.70
2018-08-24T12:31:16.996Z,23.90
2018-08-24T12:33:51.340Z,23.90
2018-08-24T12:36:25.610Z,23.70
2018-08-24T12:39:00.286Z,23.70
2018-08-24T12:41:34.800Z,24.20
2018-08-24T12:44:09.204Z,23.90
2018-08-24T12:46:43.578Z,24.10
2018-08-24T12:49:18.020Z,24.40
2018-08-24T12:51:52.249Z,23.90
2018-08-24T12:54:26.537Z,23.70
2018-08-24T12:57:00.924Z,23.90
2018-08-24T12:59:35.318Z,24.20
2018-08-24T13:02:09.675Z,24.20
2018-08-24T13:04:43.921Z,24.30
2018-08-24T13:07:18.308Z,23.90
2018-08-24T13:09:52.702Z,23.70
2018-08-24T13:12:26.993Z,23.50
2018-08-24T13:15:01.237Z,23.80
2018-08-24T13:17:35.772Z,24.10
2018-08-24T13:20:09.987Z,24.00
2018-08-24T13:22:44.205Z,23.70
2018-08-24T13:25:18.485Z,23.90
2018-08-24T13:27:52.858Z,24.30
2018-08-24T13:30:27.237Z,24.30
2018-08-24T13:33:01.756Z,24.30
2018-08-24T13:35:36.410Z,24.50
2018-08-24T13:38:10.832Z,24.30
2018-08-24T13:40:45.338Z,23.70
2018-08-24T13:43:19.603Z,23.80
2018-08-24T13:45:54.046Z,23.80
2018-08-24T13:48:28.508Z,23.90
2018-08-24T13:51:02.876Z,24.00
2018-08-24T13:53:37.329Z,23.90
2018-08-24T13:56:11.712Z,24.00
2018-08-24T13:58:46.112Z,24.20
2018-08-24T14:01:20.456Z,24.20
2018-08-24T14:03:54.729Z,24.20
2018-08-24T14:06:29.078Z,24.50
2018-08-24T14:09:04.033Z,24.40
2018-08-24T14:11:38.349Z,24.50
2018-08-24T14:14:12.747Z,24.20
2018-08-24T14:16:47.070Z,23.90
2018-08-24T14:19:21.280Z,23.90
2018-08-24T14:21:55.740Z,23.70
2018-08-24T14:24:29.956Z,24.00
2018-08-24T14:27:04.368Z,24.20
2018-08-24T14:29:38.735Z,24.30
2018-08-24T14:32:12.976Z,24.00
2018-08-24T14:34:47.283Z,24.00
2018-08-24T14:37:21.634Z,24.00
2018-08-24T14:39:56.089Z,23.90
2018-08-24T14:42:30.482Z,23.70
2018-08-24T14:45:05.030Z,23.80
2018-08-24T14:47:39.238Z,23.90
2018-08-24T14:50:13.500Z,23.80
2018-08-24T14:52:48.008Z,24.00
2018-08-24T14:55:23.397Z,24.10
2018-08-24T14:57:57.747Z,24.00
2018-08-24T15:00:32.048Z,24.00
2018-08-24T15:03:06.264Z,24.20
2018-08-24T15:05:40.596Z,24.10
2018-08-24T15:08:14.921Z,24.10
2018-08-24T15:10:49.304Z,24.00
2018-08-24T15:13:23.799Z,23.90
2018-08-24T15:15:58.053Z,23.80
2018-08-24T15:18:32.404Z,23.40
2018-08-24T15:21:06.815Z,23.60
2018-08-24T15:23:41.044Z,23.60
2018-08-24T15:26:15.308Z,23.70
2018-08-24T15:28:49.628Z,23.40
2018-08-24T15:31:24.026Z,23.40
2018-08-24T15:33:58.319Z,23.70
2018-08-24T15:36:32.568Z,23.80
2018-08-24T15:39:09.038Z,23.50
2018-08-24T15:41:43.561Z,23.50
2018-08-24T15:44:17.880Z,22.50
2018-08-24T15:46:52.118Z,22.90
2018-08-24T15:49:26.465Z,22.90
2018-08-24T15:52:00.933Z,22.50
2018-08-24T15:54:35.269Z,22.60
2018-08-24T15:57:09.536Z,22.80
2018-08-24T15:59:43.776Z,22.30
2018-08-24T16:02:18.040Z,22.50
2018-08-24T16:04:52.373Z,22.70
2018-08-24T16:07:26.629Z,22.60
2018-08-24T16:10:00.927Z,22.30
2018-08-24T16:12:35.496Z,22.30
2018-08-24T16:15:09.779Z,22.20
2018-08-24T16:17:48.431Z,22.40
2018-08-24T16:20:23.584Z,22.40
2018-08-24T16:22:58.043Z,22.30
2018-08-24T16:25:32.348Z,22.10
2018-08-24T16:28:06.748Z,22.20
2018-08-24T16:30:41.130Z,22.00
2018-08-24T16:33:15.524Z,22.00
2018-08-24T16:35:49.828Z,22.20
2018-08-24T16:38:24.145Z,22.40
2018-08-24T16:40:58.553Z,22.40
2018-08-24T16:43:33.024Z,22.50
2018-08-24T16:46:07.344Z,22.40
2018-08-24T16:48:41.675Z,21.90
2018-08-24T16:51:15.940Z,21.90
2018-08-24T16:53:50.168Z,21.90
2018-08-24T16:56:24.574Z,22.20
2018-08-24T16:58:58.777Z,22.10
2018-08-24T17:01:33.152Z,22.40
2018-08-24T17:04:07.473Z,22.50
2018-08-24T17:06:41.743Z,22.40
2018-08-24T17:09:16.124Z,22.50
2018-08-24T17:11:50.432Z,22.60
2018-08-24T17:14:24.926Z,22.60
2018-08-24T17:16:59.348Z,22.90
2018-08-24T17:19:34.097Z,22.70
2018-08-24T17:22:08.435Z,22.50
2018-08-24T17:24:42.736Z,22.10
2018-08-24T17:27:17.105Z,21.80
2018-08-24T17:29:51.476Z,21.50
2018-08-24T17:32:25.751Z,21.80
2018-08-24T17:35:00.004Z,21.70
2018-08-24T17:37:34.294Z,21.80
2018-08-24T17:40:08.662Z,21.60
2018-08-24T17:42:42.988Z,22.00
2018-08-24T17:45:17.283Z,22.10
2018-08-24T17:47:51.754Z,21.90
2018-08-24T17:50:26.261Z,21.90
2018-08-24T17:53:00.648Z,22.10
2018-08-24T17:55:34.908Z,22.00
2018-08-24T17:58:09.496Z,21.70
2018-08-24T18:00:43.889Z,21.50
2018-08-24T18:03:18.310Z,21.50
2018-08-24T18:05:52.548Z,21.50
2018-08-24T18:08:26.917Z,21.70
2018-08-24T18:11:01.279Z,21.40
2018-08-24T18:13:35.534Z,21.60
2018-08-24T18:16:09.908Z,21.00
2018-08-24T18:18:44.340Z,21.20
2018-08-24T18:21:18.676Z,21.20
2018-08-24T18:23:53.039Z,21.20
2018-08-24T18:26:27.413Z,20.50
2018-08-24T18:29:01.936Z,20.50
2018-08-24T18:31:36.305Z,20.80
2018-08-24T18:34:10.576Z,21.50
2018-08-24T18:36:44.979Z,22.30
2018-08-24T18:39:19.233Z,22.80
2018-08-24T18:41:53.505Z,23.10
2018-08-24T18:44:27.801Z,23.40
2018-08-24T18:47:02.157Z,23.60
2018-08-24T18:49:36.464Z,23.80
2018-08-24T18:52:10.747Z,23.90
2018-08-24T18:54:45.067Z,24.00
2018-08-24T18:57:19.383Z,24.20
2018-08-24T18:59:53.781Z,24.10
2018-08-24T19:02:28.154Z,24.30
2018-08-24T19:05:02.540Z,24.40
2018-08-24T19:07:36.857Z,24.50
2018-08-24T19:10:11.086Z,24.60
2018-08-24T19:12:45.537Z,24.70
2018-08-24T19:15:19.932Z,24.80
2018-08-24T19:17:59.802Z,24.80
2018-08-24T19:20:39.619Z,24.90
2018-08-24T19:23:13.877Z,24.90
2018-08-24T19:25:48.258Z,24.90
2018-08-24T19:28:27.941Z,25.00
2018-08-24T19:31:02.249Z,25.00
2018-08-24T19:33:36.603Z,25.10
2018-08-24T19:36:11.055Z,25.10
2018-08-24T19:38:45.368Z,25.10
2018-08-24T19:41:25.134Z,25.20
2018-08-24T19:43:59.633Z,25.20
2018-08-24T19:46:33.955Z,25.20
2018-08-24T19:49:14.133Z,25.10
2018-08-24T19:51:48.434Z,25.20
2018-08-24T19:54:22.809Z,25.20
2018-08-24T19:57:01.264Z,25.20
2018-08-24T19:59:35.656Z,25.30
2018-08-24T20:02:10.006Z,25.30
2018-08-24T20:04:44.492Z,25.30
2018-08-24T20:07:24.238Z,25.40
2018-08-24T20:10:05.353Z,25.30
2018-08-24T20:12:39.562Z,25.30
2018-08-24T20:15:19.442Z,25.30
2018-08-24T20:17:53.792Z,25.30
2018-08-24T20:20:28.143Z,25.30
2018-08-24T20:23:02.405Z,25.30
2018-08-24T20:25:36.825Z,25.40
2018-08-24T20:28:11.220Z,25.40
2018-08-24T20:30:45.632Z,25.40
2018-08-24T20:33:20.015Z,25.30
2018-08-24T20:35:54.541Z,25.30
2018-08-24T20:38:28.922Z,25.30
2018-08-24T20:41:03.175Z,25.40
2018-08-24T20:43:37.384Z,25.40
2018-08-24T20:46:11.742Z,25.40
2018-08-24T20:48:46.063Z,25.30
2018-08-24T20:51:20.332Z,25.40
2018-08-24T20:53:54.657Z,25.40
2018-08-24T20:56:28.993Z,25.30
2018-08-24T20:59:03.519Z,25.30
2018-08-24T21:01:37.745Z,25.30
2018-08-24T21:04:12.227Z,25.30
2018-08-24T21:06:46.484Z,25.30
2018-08-24T21:09:20.866Z,25.30
2018-08-24T21:11:55.172Z,25.20
2018-08-24T21:14:29.560Z,25.30
2018-08-24T21:17:04.077Z,25.30
2018-08-24T21:19:38.452Z,25.30
2018-08-24T21:22:12.901Z,25.30
2018-08-24T21:24:47.221Z,25.30
2018-08-24T21:27:21.570Z,25.30
2018-08-24T21:29:56.026Z,25.30
2018-08-24T21:32:30.290Z,25.30
2018-08-24T21:35:04.677Z,25.30
2018-08-24T21:37:39.071Z,25.30
2018-08-24T21:40:13.409Z,25.30
2018-08-24T21:42:47.707Z,25.30
2018-08-24T21:45:21.978Z,25.30
2018-08-24T21:47:57.205Z,25.30
2018-08-24T21:50:31.605Z,25.30
2018-08-24T21:53:06.128Z,25.30
2018-08-24T21:55:40.640Z,25.30
2018-08-24T21:58:15.079Z,25.30
2018-08-24T22:00:49.344Z,25.30
2018-08-24T22:03:23.701Z,25.20
2018-08-24T22:05:58.352Z,25.20
2018-08-24T22:08:32.764Z,25.00
2018-08-24T22:11:07.128Z,25.10
2018-08-24T22:13:41.466Z,25.20
2018-08-24T22:16:15.804Z,25.20
2018-08-24T22:18:50.217Z,25.20
2018-08-24T22:21:24.526Z,25.20
2018-08-24T22:23:58.935Z,25.30
2018-08-24T22:26:33.350Z,25.20
2018-08-24T22:29:07.648Z,25.30
2018-08-24T22:31:41.924Z,25.20
2018-08-24T22:34:16.220Z,25.20
2018-08-24T22:36:50.484Z,25.20
2018-08-24T22:39:24.815Z,25.20
2018-08-24T22:41:59.111Z,25.20
2018-08-24T22:44:33.898Z,25.20
2018-08-24T22:47:08.157Z,25.20
2018-08-24T22:49:42.433Z,25.20
2018-08-24T22:52:16.914Z,25.20
2018-08-24T22:54:51.287Z,25.20
2018-08-24T22:57:25.664Z,25.20
2018-08-24T23:00:00.045Z,25.20
2018-08-24T23:02:34.296Z,25.10
2018-08-24T23:05:08.734Z,25.10
2018-08-24T23:07:43.053Z,24.90
2018-08-24T23:10:17.312Z,24.90
2018-08-24T23:12:51.569Z,24.60
2018-08-24T23:15:25.919Z,24.80
2018-08-24T23:18:01.119Z,24.70
2018-08-24T23:20:35.488Z,24.90
2018-08-24T23:23:09.801Z,24.70
2018-08-24T23:25:44.196Z,24.80
2018-08-24T23:28:18.564Z,24.90
2018-08-24T23:30:52.907Z,24.80
2018-08-24T23:33:28.205Z,24.60
2018-08-24T23:36:02.520Z,24.70
2018-08-24T23:38:36.862Z,24.60
2018-08-24T23:41:11.232Z,24.60
2018-08-24T23:43:45.541Z,24.50
2018-08-24T23:46:19.895Z,24.60
2018-08-24T23:48:54.218Z,24.60
2018-08-24T23:51:28.470Z,24.70
2018-08-24T23:54:02.856Z,24.60
2018-08-24T23:56:37.231Z,24.60
2018-08-24T23:59:11.839Z,24.50
